Time;durP1;ratioP1;P1;durP2;ratioP2;P2;SDS_P1;SDS_P2;PMS_P1;PMS_P2;Temp;Humidity;BMP_temperature;BMP_pressure;BME280_temperature;BME280_humidity;BME280_pressure;Samples;Min_cycle;Max_cycle;Signal;HPM_P1;HPM_P2
2021/05/04 00:00:54;;;;;;;5.43;2.03;;;21.40;46.80;;;;;;4373319;32;20583;-36
2021/05/04 00:03:21;;;;;;;3.40;1.85;;;21.50;46.80;;;;;;4373210;32;20066;-35
2021/05/04 00:05:47;;;;;;;1.83;1.10;;;21.50;46.60;;;;;;4373481;32;20100;-34
2021/05/04 00:08:14;;;;;;;3.40;1.92;;;21.50;46.70;;;;;;4373372;32;20105;-35
2021/05/04 00:10:40;;;;;;;3.47;1.17;;;21.50;46.50;;;;;;4373375;32;20090;-35
2021/05/04 00:13:07;;;;;;;4.45;1.35;;;21.60;46.50;;;;;;4373262;32;20511;-36
2021/05/04 00:15:34;;;;;;;4.53;1.80;;;21.50;46.30;;;;;;4373241;32;20073;-38
2021/05/04 00:18:00;;;;;;;2.17;1.00;;;21.50;46.30;;;;;;4383181;32;20153;-34
2021/05/04 00:20:27;;;;;;;2.35;1.25;;;21.50;46.30;;;;;;4386454;32;20066;-35
2021/05/04 00:22:53;;;;;;;2.65;1.33;;;21.50;46.10;;;;;;4388180;32;20077;-35
2021/05/04 00:25:19;;;;;;;2.03;1.35;;;21.50;46.30;;;;;;4388209;32;20057;-37
2021/05/04 00:27:46;;;;;;;4.95;1.48;;;21.50;46.20;;;;;;4388163;32;20141;-35
2021/05/04 00:30:13;;;;;;;5.65;1.65;;;21.40;46.10;;;;;;4388178;32;20091;-37
2021/05/04 00:32:39;;;;;;;5.28;1.23;;;21.50;46.00;;;;;;4387687;32;20152;-36
2021/05/04 00:35:06;;;;;;;3.20;1.42;;;21.40;45.90;;;;;;4388546;32;20062;-37
2021/05/04 00:37:33;;;;;;;7.12;1.92;;;21.40;46.00;;;;;;4387498;32;20514;-37
2021/05/04 00:39:59;;;;;;;4.07;1.67;;;21.40;45.90;;;;;;4388298;32;20161;-36
2021/05/04 00:42:25;;;;;;;7.37;1.58;;;21.40;45.90;;;;;;4388112;32;20474;-35
2021/05/04 00:44:52;;;;;;;2.80;1.45;;;21.40;46.00;;;;;;4387993;32;20065;-37
2021/05/04 00:47:19;;;;;;;3.47;1.42;;;21.30;45.90;;;;;;4387926;32;20077;-35
2021/05/04 00:49:45;;;;;;;3.35;1.80;;;21.30;45.90;;;;;;4385935;32;20609;-36
2021/05/04 00:52:12;;;;;;;1.83;0.98;;;21.30;45.90;;;;;;4387814;32;20734;-37
2021/05/04 00:54:40;;;;;;;3.08;1.37;;;21.40;45.80;;;;;;4385965;32;20069;-38
2021/05/04 00:57:11;;;;;;;5.43;0.85;;;21.40;45.60;;;;;;4386410;32;20085;-36
2021/05/04 00:59:38;;;;;;;3.80;1.40;;;21.40;45.60;;;;;;4386005;32;20145;-36
2021/05/04 01:02:05;;;;;;;5.00;1.45;;;21.40;45.50;;;;;;4387806;32;20069;-36
2021/05/04 01:04:31;;;;;;;4.90;1.52;;;21.40;45.20;;;;;;4386505;32;20205;-35
2021/05/04 01:07:00;;;;;;;4.68;1.15;;;21.40;44.90;;;;;;4386477;32;20142;-37
2021/05/04 01:09:26;;;;;;;6.90;1.95;;;21.40;44.70;;;;;;4374351;32;20138;-37
2021/05/04 01:11:53;;;;;;;3.62;1.00;;;21.40;44.60;;;;;;4386492;32;20459;-37
2021/05/04 01:14:20;;;;;;;7.45;1.55;;;21.30;44.50;;;;;;4387866;32;20046;-39
2021/05/04 01:16:50;;;;;;;3.92;1.37;;;21.20;44.70;;;;;;4369961;32;20734;-39
2021/05/04 01:19:17;;;;;;;5.12;2.20;;;21.20;44.70;;;;;;4370315;32;20081;-37
2021/05/04 01:21:44;;;;;;;4.80;1.50;;;21.20;44.80;;;;;;4369764;32;20096;-39
2021/05/04 01:24:11;;;;;;;5.28;1.55;;;21.10;44.90;;;;;;4357595;32;20170;-38
2021/05/04 01:26:44;;;;;;;7.90;1.15;;;21.10;44.90;;;;;;4370924;32;20149;-39
2021/05/04 01:29:11;;;;;;;2.15;1.27;;;21.10;44.90;;;;;;4360679;32;20062;-37
2021/05/04 01:31:38;;;;;;;2.08;1.10;;;21.20;44.70;;;;;;4373066;32;20591;-39
2021/05/04 01:34:06;;;;;;;6.55;1.23;;;21.20;44.70;;;;;;4372862;32;20534;-39
2021/05/04 01:36:35;;;;;;;3.20;1.08;;;21.20;44.50;;;;;;4372671;32;20086;-39
2021/05/04 01:39:07;;;;;;;5.43;1.33;;;21.20;44.20;;;;;;4372346;32;20073;-37
2021/05/04 01:41:34;;;;;;;5.65;1.50;;;21.30;44.10;;;;;;4372813;32;20100;-35
2021/05/04 01:44:00;;;;;;;8.77;1.17;;;21.30;43.90;;;;;;4372786;32;20101;-35
2021/05/04 01:46:31;;;;;;;7.75;1.35;;;21.40;43.90;;;;;;4360140;32;20074;-36
2021/05/04 01:49:03;;;;;;;1.92;0.80;;;21.40;43.80;;;;;;4372819;32;20058;-39
2021/05/04 01:51:30;;;;;;;7.37;1.20;;;21.50;43.50;;;;;;4372591;32;20552;-35
2021/05/04 01:53:56;;;;;;;3.85;1.15;;;21.60;43.40;;;;;;4369815;32;20062;-40
2021/05/04 01:56:23;;;;;;;6.78;1.37;;;21.60;43.30;;;;;;4388063;32;20465;-39
2021/05/04 01:58:50;;;;;;;5.72;1.35;;;21.70;43.10;;;;;;4389788;32;21207;-38
2021/05/04 02:01:16;;;;;;;5.62;1.40;;;21.80;42.80;;;;;;4390206;32;20097;-36
2021/05/04 02:03:43;;;;;;;2.37;1.00;;;21.90;42.40;;;;;;4389600;32;20058;-35
2021/05/04 02:06:10;;;;;;;6.68;0.98;;;22.10;42.00;;;;;;4388412;32;20069;-39
2021/05/04 02:08:36;;;;;;;7.32;0.95;;;22.20;41.60;;;;;;4390208;32;20054;-39
2021/05/04 02:11:04;;;;;;;3.60;1.20;;;22.30;41.30;;;;;;4389546;32;20070;-37
2021/05/04 02:13:31;;;;;;;11.50;1.30;;;22.50;40.90;;;;;;4389976;32;20543;-35
2021/05/04 02:15:57;;;;;;;3.97;0.75;;;22.60;40.70;;;;;;4388333;32;20125;-37
2021/05/04 02:18:24;;;;;;;2.83;0.80;;;22.80;40.30;;;;;;4377001;32;20077;-35
2021/05/04 02:20:50;;;;;;;6.53;0.60;;;22.90;39.80;;;;;;4374994;32;20058;-37
2021/05/04 02:23:17;;;;;;;8.02;0.90;;;23.10;39.50;;;;;;4374130;32;20129;-39
2021/05/04 02:25:43;;;;;;;2.67;0.75;;;23.40;39.00;;;;;;4374287;32;20113;-38
2021/05/04 02:28:09;;;;;;;8.75;1.10;;;23.60;38.60;;;;;;4374354;32;20522;-38
2021/05/04 02:30:36;;;;;;;5.30;1.20;;;23.80;37.90;;;;;;4374428;32;20100;-40
2021/05/04 02:33:03;;;;;;;5.03;0.80;;;24.00;37.30;;;;;;4374719;32;20081;-37
2021/05/04 02:35:29;;;;;;;6.18;1.23;;;24.30;36.80;;;;;;4372969;32;20058;-39
2021/05/04 02:37:56;;;;;;;5.57;1.08;;;24.50;36.10;;;;;;4373370;32;20080;-39
2021/05/04 02:40:22;;;;;;;3.53;1.35;;;24.70;35.60;;;;;;4373775;32;20093;-40
2021/05/04 02:42:49;;;;;;;9.00;1.77;;;24.80;35.00;;;;;;4356250;32;20164;-39
2021/05/04 02:45:16;;;;;;;2.75;0.60;;;25.00;34.70;;;;;;4356754;32;20082;-40
2021/05/04 02:47:42;;;;;;;2.78;0.95;;;25.20;34.70;;;;;;4356497;32;20474;-40
2021/05/04 02:50:10;;;;;;;4.37;0.62;;;25.30;34.10;;;;;;4356920;32;20141;-42
2021/05/04 02:52:36;;;;;;;2.85;1.00;;;25.40;33.90;;;;;;4356913;32;20101;-40
2021/05/04 02:55:03;;;;;;;12.02;1.00;;;25.60;33.60;;;;;;4356614;32;20179;-40
2021/05/04 02:57:29;;;;;;;5.72;0.93;;;25.70;33.50;;;;;;4344350;32;20078;-41
2021/05/04 02:59:56;;;;;;;6.30;0.82;;;25.90;33.10;;;;;;4356521;32;20100;-40
2021/05/04 03:02:22;;;;;;;5.70;1.12;;;26.00;32.80;;;;;;4344184;32;20494;-40
2021/05/04 03:04:49;;;;;;;7.18;0.90;;;26.00;32.50;;;;;;4356469;32;20074;-41
2021/05/04 03:07:15;;;;;;;10.73;1.85;;;26.00;32.40;;;;;;4344115;32;20078;-40
2021/05/04 03:09:42;;;;;;;6.35;0.62;;;26.10;32.20;;;;;;4356345;32;20147;-40
2021/05/04 03:12:09;;;;;;;8.20;0.85;;;26.10;32.20;;;;;;4356378;32;20145;-41
2021/05/04 03:14:35;;;;;;;8.65;0.90;;;26.10;32.00;;;;;;4356013;32;20067;-41
2021/05/04 03:17:02;;;;;;;12.00;1.52;;;26.10;31.80;;;;;;4360313;32;20093;-41
2021/05/04 03:19:28;;;;;;;2.35;0.70;;;26.10;31.70;;;;;;4371504;32;20061;-41
2021/05/04 03:21:55;;;;;;;7.25;0.90;;;26.10;31.60;;;;;;4372269;32;20093;-40
2021/05/04 03:24:21;;;;;;;6.20;1.00;;;26.00;31.60;;;;;;4373619;32;20455;-41
2021/05/04 03:26:47;;;;;;;2.92;0.65;;;26.00;31.60;;;;;;4373810;32;20070;-41
2021/05/04 03:29:14;;;;;;;3.62;0.80;;;26.00;31.40;;;;;;4373453;32;20599;-42
2021/05/04 03:31:40;;;;;;;4.60;1.02;;;26.00;31.90;;;;;;4373546;32;20057;-42
2021/05/04 03:34:07;;;;;;;7.25;0.85;;;26.00;31.10;;;;;;4373503;32;20047;-41
2021/05/04 03:36:33;;;;;;;7.53;0.80;;;26.00;30.90;;;;;;4373417;32;20726;-40
2021/05/04 03:39:00;;;;;;;3.87;1.02;;;26.10;31.60;;;;;;4373108;32;20832;-40
2021/05/04 03:41:26;;;;;;;18.70;2.25;;;26.10;30.70;;;;;;4373043;32;20090;-42
2021/05/04 03:43:53;;;;;;;7.53;0.90;;;26.10;30.50;;;;;;4373015;32;20530;-41
2021/05/04 03:46:19;;;;;;;6.12;0.95;;;26.20;30.40;;;;;;4373178;32;20085;-41
2021/05/04 03:48:45;;;;;;;3.97;0.80;;;26.30;30.10;;;;;;4372727;32;20054;-42
2021/05/04 03:51:12;;;;;;;9.68;0.95;;;26.30;29.90;;;;;;4372967;32;20066;-40
2021/05/04 03:53:40;;;;;;;3.78;0.90;;;26.40;29.70;;;;;;4373197;32;20059;-41
2021/05/04 03:56:07;;;;;;;6.78;0.73;;;26.50;29.50;;;;;;4373021;32;20077;-37
2021/05/04 03:58:33;;;;;;;2.45;0.75;;;26.60;29.40;;;;;;4373192;32;20132;-42
2021/05/04 04:00:59;;;;;;;5.10;0.70;;;26.60;29.30;;;;;;4372850;32;20557;-41
2021/05/04 04:03:26;;;;;;;7.18;0.80;;;26.70;29.80;;;;;;4373180;32;20502;-42
2021/05/04 04:05:53;;;;;;;5.22;0.85;;;26.80;29.70;;;;;;4371770;32;20164;-41
2021/05/04 04:08:20;;;;;;;8.88;0.77;;;26.90;29.00;;;;;;4373076;32;20228;-42
2021/05/04 04:10:47;;;;;;;4.37;0.65;;;27.00;28.90;;;;;;4372807;32;20096;-42
2021/05/04 04:13:14;;;;;;;10.80;0.88;;;27.10;28.60;;;;;;4372618;32;20063;-41
2021/05/04 04:15:40;;;;;;;4.95;0.85;;;27.30;28.60;;;;;;4372752;32;20078;-42
2021/05/04 04:18:07;;;;;;;5.43;0.70;;;27.40;28.30;;;;;;4373174;32;20056;-43
2021/05/04 04:20:33;;;;;;;2.25;0.60;;;27.60;28.10;;;;;;4371695;32;20092;-42
2021/05/04 04:23:00;;;;;;;4.30;0.75;;;27.80;27.80;;;;;;4372890;32;20066;-43
2021/05/04 04:25:26;;;;;;;6.10;0.62;;;27.90;27.50;;;;;;4372816;32;20133;-41
2021/05/04 04:27:53;;;;;;;7.82;0.90;;;28.10;27.30;;;;;;4371255;32;20074;-42
2021/05/04 04:30:20;;;;;;;3.50;0.52;;;28.30;27.10;;;;;;4371518;32;20085;-43
2021/05/04 04:32:47;;;;;;;2.72;0.90;;;28.60;27.10;;;;;;4371763;32;20108;-43
2021/05/04 04:35:13;;;;;;;4.62;0.68;;;28.80;26.60;;;;;;4372911;32;20082;-42
2021/05/04 04:37:40;;;;;;;5.68;0.70;;;29.10;26.30;;;;;;4372839;32;20667;-40
2021/05/04 04:40:07;;;;;;;4.32;0.70;;;29.30;25.90;;;;;;4371725;32;20070;-42
2021/05/04 04:42:34;;;;;;;4.68;0.70;;;29.40;25.60;;;;;;4372742;32;20090;-42
2021/05/04 04:45:01;;;;;;;9.93;0.70;;;29.50;25.40;;;;;;4371522;32;20138;-42
2021/05/04 04:47:27;;;;;;;9.48;0.60;;;29.50;25.30;;;;;;4372509;32;20082;-42
2021/05/04 04:49:54;;;;;;;8.70;0.88;;;29.60;25.10;;;;;;4372436;32;20503;-43
2021/05/04 04:52:20;;;;;;;3.72;0.70;;;29.60;25.00;;;;;;4372687;32;20062;-42
2021/05/04 04:54:47;;;;;;;4.65;0.50;;;29.70;24.70;;;;;;4371150;32;20130;-42
2021/05/04 04:57:13;;;;;;;5.30;0.75;;;29.70;24.40;;;;;;4372497;32;20534;-41
2021/05/04 04:59:40;;;;;;;4.20;0.60;;;29.70;24.30;;;;;;4371125;32;20070;-36
2021/05/04 05:02:06;;;;;;;7.18;0.85;;;29.60;24.10;;;;;;4374324;32;20479;-42
2021/05/04 05:04:32;;;;;;;4.72;0.80;;;29.60;24.10;;;;;;4373698;32;20110;-39
2021/05/04 05:07:05;;;;;;;9.30;0.85;;;29.40;24.00;;;;;;4375513;32;20077;-40
2021/05/04 05:09:35;;;;;;;6.80;0.90;;;29.30;23.90;;;;;;4375522;32;20618;-42
2021/05/04 05:12:04;;;;;;;2.37;0.60;;;29.10;23.90;;;;;;4375439;32;20058;-41
2021/05/04 05:14:34;;;;;;;5.43;0.80;;;28.80;23.80;;;;;;4375661;32;20562;-43
2021/05/04 05:17:01;;;;;;;6.12;0.60;;;28.60;23.90;;;;;;4375568;32;20050;-42
2021/05/04 05:19:28;;;;;;;4.80;0.60;;;28.50;24.00;;;;;;4373803;32;20155;-40
2021/05/04 05:21:54;;;;;;;5.90;0.70;;;28.30;23.90;;;;;;4375210;32;20056;-43
2021/05/04 05:24:21;;;;;;;4.78;0.45;;;28.20;23.90;;;;;;4374040;32;20519;-42
2021/05/04 05:26:48;;;;;;;3.20;0.70;;;28.10;23.90;;;;;;4374972;32;20066;-42
2021/05/04 05:29:15;;;;;;;8.30;1.30;;;28.10;23.90;;;;;;4374859;32;20160;-41
2021/05/04 05:31:42;;;;;;;5.40;1.35;;;28.10;23.90;;;;;;4375180;32;20065;-36
2021/05/04 05:34:08;;;;;;;6.07;0.55;;;28.20;24.10;;;;;;4375323;32;20062;-42
2021/05/04 05:36:35;;;;;;;3.25;1.10;;;28.30;24.10;;;;;;4361526;32;20062;-42
2021/05/04 05:39:02;;;;;;;12.25;1.00;;;28.40;24.00;;;;;;4374630;32;20073;-42
2021/05/04 05:41:28;;;;;;;2.08;0.52;;;28.60;24.00;;;;;;4374808;32;20605;-42
2021/05/04 05:43:55;;;;;;;7.35;1.12;;;28.80;23.80;;;;;;4374831;32;20073;-42
2021/05/04 05:46:22;;;;;;;5.00;0.60;;;29.00;23.70;;;;;;4375040;32;20066;-42
2021/05/04 05:48:48;;;;;;;8.45;0.70;;;29.10;23.60;;;;;;4374480;32;20058;-41
2021/05/04 05:51:15;;;;;;;6.47;0.60;;;29.30;23.60;;;;;;4373508;32;20189;-43
2021/05/04 05:53:41;;;;;;;3.17;0.68;;;29.50;23.40;;;;;;4375080;32;20148;-42
2021/05/04 05:56:08;;;;;;;7.82;1.30;;;29.60;23.10;;;;;;4374744;32;20489;-42
2021/05/04 05:58:34;;;;;;;8.75;0.77;;;29.70;22.90;;;;;;4374845;32;20553;-42
2021/05/04 06:01:01;;;;;;;6.80;0.70;;;29.80;22.80;;;;;;4374185;32;20149;-42
2021/05/04 06:03:30;;;;;;;9.18;0.70;;;29.90;22.60;;;;;;4373163;32;20111;-42
2021/05/04 06:05:57;;;;;;;7.25;0.57;;;29.90;22.30;;;;;;4374708;32;20069;-41
2021/05/04 06:08:24;;;;;;;9.30;0.75;;;29.80;22.30;;;;;;4374767;32;20081;-42
2021/05/04 06:10:51;;;;;;;2.08;0.75;;;29.70;22.20;;;;;;4374554;32;20065;-42
2021/05/04 06:13:17;;;;;;;7.55;0.77;;;29.50;22.20;;;;;;4374547;32;20062;-42
2021/05/04 06:15:44;;;;;;;5.62;0.90;;;29.50;22.80;;;;;;4375004;32;20073;-40
2021/05/04 06:18:11;;;;;;;11.57;0.82;;;29.40;22.20;;;;;;4374562;32;20070;-42
2021/05/04 06:20:38;;;;;;;3.03;0.80;;;29.30;22.40;;;;;;4374927;32;20077;-41
2021/05/04 06:23:05;;;;;;;2.87;0.57;;;29.30;22.10;;;;;;4374680;32;20101;-42
2021/05/04 06:25:32;;;;;;;3.00;0.70;;;29.30;21.90;;;;;;4374369;32;20156;-43
2021/05/04 06:28:10;;;;;;;3.28;0.60;;;29.30;21.80;;;;;;4374708;32;20148;-41
2021/05/04 06:30:37;;;;;;;4.40;0.62;;;29.40;21.80;;;;;;4374158;32;20497;-42
2021/05/04 06:33:12;;;;;;;3.75;0.60;;;29.50;21.70;;;;;;4374524;32;20096;-42
2021/05/04 06:35:41;;;;;;;5.45;1.52;;;29.60;21.70;;;;;;4372546;32;20058;-42
2021/05/04 06:38:13;;;;;;;8.82;1.33;;;29.70;21.80;;;;;;4374255;32;20073;-42
2021/05/04 06:40:40;;;;;;;6.47;0.70;;;29.80;21.90;;;;;;4372467;32;20082;-41
2021/05/04 06:43:07;;;;;;;9.13;1.35;;;30.00;21.70;;;;;;4372648;32;20507;-42
2021/05/04 06:45:34;;;;;;;11.75;0.98;;;30.10;21.70;;;;;;4373821;32;20062;-42
2021/05/04 06:48:00;;;;;;;12.15;0.80;;;30.20;21.20;;;;;;4374364;32;20058;-42
2021/05/04 06:50:27;;;;;;;7.95;1.25;;;30.20;20.80;;;;;;4374109;32;20158;-42
2021/05/04 06:52:53;;;;;;;8.00;0.60;;;30.20;21.10;;;;;;4374363;32;20153;-42
2021/05/04 06:55:20;;;;;;;4.75;0.55;;;30.00;21.20;;;;;;4374313;32;20125;-42
2021/05/04 06:57:46;;;;;;;3.47;0.75;;;29.90;21.20;;;;;;4374084;32;20065;-38
2021/05/04 07:00:14;;;;;;;4.12;0.70;;;29.80;21.20;;;;;;4374194;32;20078;-42
2021/05/04 07:02:40;;;;;;;6.18;0.60;;;29.80;21.60;;;;;;4372422;32;20050;-41
2021/05/04 07:05:09;;;;;;;6.37;0.60;;;29.80;21.70;;;;;;4373780;32;20204;-43
2021/05/04 07:07:36;;;;;;;8.88;0.62;;;29.90;21.60;;;;;;4373633;32;20097;-40
2021/05/04 07:10:03;;;;;;;5.37;0.93;;;30.00;21.50;;;;;;4372030;32;20080;-40
2021/05/04 07:12:30;;;;;;;6.53;0.52;;;30.10;21.20;;;;;;4373729;32;20046;-41
2021/05/04 07:14:57;;;;;;;3.85;0.90;;;30.30;21.00;;;;;;4373800;32;20092;-38
2021/05/04 07:17:24;;;;;;;8.43;1.00;;;30.30;20.90;;;;;;4372741;32;20066;-41
2021/05/04 07:19:51;;;;;;;8.98;0.70;;;30.30;20.80;;;;;;4373508;32;20100;-41
2021/05/04 07:22:21;;;;;;;19.62;0.82;;;30.30;20.60;;;;;;4373841;32;20067;-38
2021/05/04 07:24:48;;;;;;;10.15;0.95;;;30.30;20.50;;;;;;4373280;32;20062;-42
2021/05/04 07:27:15;;;;;;;3.62;0.57;;;30.30;20.60;;;;;;4373698;32;20171;-41
2021/05/04 07:29:41;;;;;;;5.47;0.90;;;30.20;20.40;;;;;;4371899;32;20693;-41
2021/05/04 07:32:08;;;;;;;3.28;0.90;;;30.20;20.20;;;;;;4373551;32;20146;-40
2021/05/04 07:34:34;;;;;;;4.97;0.85;;;30.20;20.50;;;;;;4373113;32;20474;-41
2021/05/04 07:37:01;;;;;;;5.45;0.70;;;30.20;20.70;;;;;;4373575;32;20054;-41
2021/05/04 07:39:27;;;;;;;4.57;0.60;;;30.20;20.70;;;;;;4373006;32;20081;-41
2021/05/04 07:41:54;;;;;;;8.52;0.65;;;30.30;20.90;;;;;;4373247;32;20085;-41
2021/05/04 07:44:21;;;;;;;10.32;1.08;;;30.50;20.90;;;;;;4373478;32;20526;-41
2021/05/04 07:46:48;;;;;;;2.67;0.50;;;30.70;20.20;;;;;;4373518;32;20465;-41
2021/05/04 07:49:22;;;;;;;5.40;1.00;;;30.90;20.20;;;;;;4371548;32;20054;-41
2021/05/04 07:51:49;;;;;;;6.05;0.62;;;31.20;20.10;;;;;;4371861;32;20073;-41
2021/05/04 07:54:17;;;;;;;8.55;0.93;;;31.60;20.20;;;;;;4373321;32;20077;-41
2021/05/04 07:56:45;;;;;;;3.03;0.60;;;31.90;20.00;;;;;;4373462;32;20553;-41
2021/05/04 07:59:11;;;;;;;7.10;0.70;;;32.20;19.80;;;;;;4373297;32;20064;-41
2021/05/04 08:01:38;;;;;;;7.45;0.80;;;32.50;19.70;;;;;;4373243;32;20066;-41
2021/05/04 08:04:05;;;;;;;11.48;0.80;;;32.70;19.70;;;;;;4373349;32;20125;-42
2021/05/04 08:06:31;;;;;;;9.35;0.60;;;32.70;19.20;;;;;;4373131;32;20076;-42
2021/05/04 08:09:01;;;;;;;7.28;1.15;;;32.60;19.20;;;;;;4373004;32;20081;-42
2021/05/04 08:11:28;;;;;;;12.98;1.25;;;32.40;19.30;;;;;;4372637;32;20086;-42
2021/05/04 08:13:54;;;;;;;2.22;0.52;;;32.20;19.20;;;;;;4373029;32;20105;-41
2021/05/04 08:16:20;;;;;;;10.18;1.17;;;32.00;19.40;;;;;;4373082;32;20085;-40
2021/05/04 08:18:50;;;;;;;7.40;0.60;;;31.90;19.40;;;;;;4372989;32;20081;-41
2021/05/04 08:25:00;;;;;;;4.22;0.60;;;31.60;19.50;;;;;;4372558;32;20521;-43
2021/05/04 08:27:27;;;;;;;4.18;0.62;;;31.70;19.40;;;;;;4372804;32;20097;-41
2021/05/04 08:29:53;;;;;;;9.75;0.75;;;31.70;19.30;;;;;;4372947;32;20468;-41
2021/05/04 08:32:20;;;;;;;11.93;0.95;;;31.80;19.50;;;;;;4371688;32;20068;-42
2021/05/04 08:34:46;;;;;;;7.00;0.65;;;31.80;19.80;;;;;;4372439;32;20134;-42
2021/05/04 08:37:13;;;;;;;10.52;0.82;;;31.80;19.40;;;;;;4375553;32;20180;-42
2021/05/04 08:39:39;;;;;;;8.38;0.60;;;31.70;19.30;;;;;;4375833;32;20062;-41
2021/05/04 08:42:06;;;;;;;4.78;0.68;;;31.60;19.40;;;;;;4375558;32;20093;-41
2021/05/04 08:44:32;;;;;;;3.58;0.70;;;31.60;19.40;;;;;;4375703;32;20082;-40
2021/05/04 08:46:59;;;;;;;16.00;1.02;;;31.60;19.50;;;;;;4374375;32;20469;-42
2021/05/04 08:49:25;;;;;;;3.03;0.50;;;31.80;19.40;;;;;;4361625;32;20136;-41
2021/05/04 08:51:51;;;;;;;6.85;0.50;;;31.90;19.20;;;;;;4375623;32;20062;-41
2021/05/04 08:54:18;;;;;;;10.07;0.60;;;32.00;19.30;;;;;;4375360;32;20072;-41
2021/05/04 08:56:44;;;;;;;8.32;0.60;;;32.00;19.50;;;;;;4373776;32;20494;-41
2021/05/04 08:59:11;;;;;;;8.23;0.43;;;31.90;19.50;;;;;;4374340;32;20495;-42
2021/05/04 09:01:38;;;;;;;4.22;1.05;;;31.80;19.70;;;;;;4374173;32;20142;-42
2021/05/04 09:04:10;;;;;;;4.68;0.50;;;31.80;19.90;;;;;;4374000;32;20078;-42
2021/05/04 09:06:45;;;;;;;8.52;0.70;;;31.70;20.00;;;;;;4375495;32;20069;-42
2021/05/04 09:22:02;;;;;;;8.70;0.93;;;31.60;20.20;;;;;;4375088;32;20082;-42
2021/05/04 09:24:41;;;;;;;2.83;0.95;;;31.70;20.20;;;;;;4375104;32;20055;-42
2021/05/04 09:27:15;;;;;;;5.70;0.80;;;31.80;20.10;;;;;;4373681;32;20068;-40
2021/05/04 09:29:55;;;;;;;13.38;0.90;;;31.90;20.00;;;;;;4373189;32;20070;-41
2021/05/04 09:32:29;;;;;;;6.35;0.57;;;32.10;20.00;;;;;;4375273;32;20544;-41
2021/05/04 09:35:00;;;;;;;5.95;0.82;;;32.10;20.00;;;;;;4375222;32;20089;-37
2021/05/04 09:37:31;;;;;;;7.35;0.73;;;32.10;20.00;;;;;;4375006;32;20062;-40
2021/05/04 09:40:22;;;;;;;8.43;0.50;;;31.90;19.90;;;;;;4375050;32;20084;-41
2021/05/04 09:43:23;;;;;;;4.03;0.75;;;31.80;19.80;;;;;;4375331;32;20442;-43
2021/05/04 09:45:51;;;;;;;8.63;1.12;;;31.60;19.90;;;;;;4374860;32;20059;-43
2021/05/04 09:48:23;;;;;;;5.07;0.93;;;31.50;19.90;;;;;;4374030;32;20145;-42
2021/05/04 09:51:09;;;;;;;19.48;1.95;;;31.30;19.80;;;;;;4375233;32;20109;-43
2021/05/04 09:53:45;;;;;;;3.62;0.60;;;31.10;20.00;;;;;;4375213;32;20154;-43
2021/05/04 09:56:29;;;;;;;11.63;0.70;;;30.80;19.80;;;;;;4374791;32;20581;-42
2021/05/04 09:58:55;;;;;;;10.00;0.90;;;30.50;19.80;;;;;;4375291;32;20058;-41
2021/05/04 10:01:22;;;;;;;9.38;1.20;;;30.20;19.80;;;;;;4373063;32;20068;-41
2021/05/04 10:03:49;;;;;;;9.65;0.50;;;30.00;20.00;;;;;;4374333;32;20145;-40
2021/05/04 10:06:19;;;;;;;10.30;0.70;;;29.90;20.00;;;;;;4374635;32;20140;-39
2021/05/04 10:08:48;;;;;;;8.38;0.68;;;29.80;20.20;;;;;;4374178;32;20081;-40
2021/05/04 10:11:21;;;;;;;9.77;0.80;;;29.60;20.20;;;;;;4356601;32;20232;-40
2021/05/04 10:13:52;;;;;;;5.90;1.00;;;29.50;20.50;;;;;;4327116;33;20106;-41
2021/05/04 10:16:29;;;;;;;4.30;0.55;;;29.50;20.30;;;;;;4327250;33;20164;-41
2021/05/04 10:19:03;;;;;;;13.55;0.85;;;29.40;20.10;;;;;;4327683;33;20067;-43
2021/05/04 10:21:30;;;;;;;7.72;1.17;;;29.40;20.20;;;;;;4327239;33;20073;-42
2021/05/04 10:23:57;;;;;;;6.75;0.93;;;29.40;20.30;;;;;;4327832;33;20059;-41
2021/05/04 10:26:29;;;;;;;5.00;1.08;;;29.30;20.10;;;;;;4327287;33;20074;-41
2021/05/04 10:29:05;;;;;;;12.18;1.25;;;29.20;20.00;;;;;;4315363;33;20086;-41
2021/05/04 10:31:41;;;;;;;4.28;0.85;;;29.20;20.30;;;;;;4326687;33;20608;-40
2021/05/04 10:34:34;;;;;;;10.63;1.12;;;29.20;20.30;;;;;;4327416;33;20067;-41
2021/05/04 10:37:27;;;;;;;9.40;0.75;;;29.30;20.30;;;;;;4286186;33;20165;-40
2021/05/04 10:39:54;;;;;;;2.42;0.65;;;29.30;20.50;;;;;;4297513;33;20075;-39
2021/05/04 10:42:37;;;;;;;6.53;0.70;;;29.20;20.80;;;;;;4312762;33;20094;-41
2021/05/04 10:45:03;;;;;;;7.93;1.90;;;28.90;20.70;;;;;;4335847;33;20179;-41
2021/05/04 10:47:42;;;;;;;11.98;0.70;;;28.70;20.50;;;;;;4341581;33;20499;-35
2021/05/04 10:50:17;;;;;;;6.82;0.70;;;28.60;20.80;;;;;;4341407;33;20575;-39
2021/05/04 10:52:54;;;;;;;11.77;1.65;;;28.40;20.90;;;;;;4341896;33;20141;-41
2021/05/04 10:55:23;;;;;;;12.85;0.70;;;28.40;20.90;;;;;;4341935;33;20084;-41
2021/05/04 10:58:02;;;;;;;7.43;0.70;;;28.40;20.80;;;;;;4341719;33;20069;-43
2021/05/04 11:00:50;;;;;;;13.07;0.73;;;28.40;20.70;;;;;;4341373;33;20091;-43
2021/05/04 11:03:32;;;;;;;12.63;1.10;;;28.30;20.80;;;;;;4341478;33;20535;-42
2021/05/04 11:06:09;;;;;;;10.43;0.93;;;28.20;20.80;;;;;;4341656;33;20062;-43
2021/05/04 11:08:44;;;;;;;13.73;0.90;;;28.00;20.90;;;;;;4365235;32;20578;-39
2021/05/04 11:11:25;;;;;;;5.53;0.70;;;27.90;21.00;;;;;;4373762;32;20502;-37
2021/05/04 11:14:21;;;;;;;10.10;0.95;;;27.70;21.00;;;;;;4373651;32;20102;-41
2021/05/04 11:16:53;;;;;;;11.73;1.12;;;27.50;21.00;;;;;;4375882;32;20619;-36
2021/05/04 11:19:29;;;;;;;13.13;1.20;;;27.30;21.20;;;;;;4387332;32;20529;-39
2021/05/04 11:21:59;;;;;;;4.45;0.70;;;27.10;21.20;;;;;;4388787;32;20125;-39
2021/05/04 11:24:32;;;;;;;4.68;0.68;;;27.00;21.20;;;;;;4388721;32;20630;-41
2021/05/04 11:26:59;;;;;;;6.95;1.87;;;26.90;21.30;;;;;;4388792;32;20068;-40
2021/05/04 11:29:31;;;;;;;7.10;0.88;;;26.80;21.50;;;;;;4387990;32;20468;-39
2021/05/04 11:32:24;;;;;;;9.82;1.50;;;26.70;21.60;;;;;;4388679;32;20531;-39
2021/05/04 11:35:03;;;;;;;13.52;1.17;;;26.60;21.60;;;;;;4388631;32;20146;-40
2021/05/04 11:37:39;;;;;;;6.03;0.95;;;26.60;21.60;;;;;;4388011;32;20058;-41
2021/05/04 11:40:24;;;;;;;8.25;1.20;;;26.50;21.60;;;;;;4388430;32;20061;-39
2021/05/04 11:42:56;;;;;;;4.32;0.93;;;26.40;21.60;;;;;;4386578;32;20073;-41
2021/05/04 11:45:30;;;;;;;9.02;1.30;;;26.30;21.40;;;;;;4388499;32;20068;-41
2021/05/04 11:48:04;;;;;;;8.68;0.80;;;26.30;21.80;;;;;;4388407;32;20051;-39
2021/05/04 11:50:42;;;;;;;4.78;0.60;;;26.30;21.90;;;;;;4388028;32;20062;-41
2021/05/04 11:53:10;;;;;;;8.63;1.00;;;26.30;22.00;;;;;;4387908;32;20168;-40
2021/05/04 11:55:45;;;;;;;6.35;0.80;;;26.30;22.00;;;;;;4388298;32;20168;-39
2021/05/04 11:58:26;;;;;;;9.23;1.10;;;26.30;22.10;;;;;;4387832;32;20153;-42
2021/05/04 12:01:04;;;;;;;6.57;0.75;;;26.20;22.00;;;;;;4387975;32;20078;-40
2021/05/04 12:03:32;;;;;;;5.50;0.77;;;26.10;21.90;;;;;;4386692;32;20053;-40
2021/05/04 12:06:00;;;;;;;9.20;0.90;;;26.00;22.10;;;;;;4386522;32;20514;-39
2021/05/04 12:08:26;;;;;;;8.57;1.17;;;25.80;22.10;;;;;;4387858;32;20057;-40
2021/05/04 12:10:53;;;;;;;10.73;1.10;;;25.80;22.20;;;;;;4385878;32;20065;-39
2021/05/04 12:13:22;;;;;;;9.25;0.75;;;25.70;22.10;;;;;;4388222;32;20050;-41
2021/05/04 12:15:54;;;;;;;6.57;0.88;;;25.70;22.00;;;;;;4387779;32;20583;-41
2021/05/04 12:18:24;;;;;;;8.00;0.68;;;25.70;22.00;;;;;;4387758;32;20057;-40
2021/05/04 12:20:55;;;;;;;6.43;0.68;;;25.70;22.40;;;;;;4388081;32;20495;-39
2021/05/04 12:23:30;;;;;;;6.28;0.82;;;25.50;22.00;;;;;;4387977;32;20158;-39
2021/05/04 12:26:07;;;;;;;;;;;25.50;22.30;;;;;;4388585;32;20062;-40
2021/05/04 12:28:39;;;;;;;8.88;0.70;;;25.40;22.10;;;;;;4387869;32;19949;-39
2021/05/04 12:31:11;;;;;;;3.47;0.40;;;25.40;21.90;;;;;;4388279;32;20068;-37
2021/05/04 12:33:41;;;;;;;4.18;0.90;;;25.40;21.90;;;;;;4387797;32;20061;-40
2021/05/04 12:36:14;;;;;;;7.35;0.90;;;25.30;21.90;;;;;;4386223;32;20069;-41
2021/05/04 12:38:48;;;;;;;6.28;1.08;;;25.40;22.10;;;;;;4387395;32;20061;-39
2021/05/04 12:47:05;;;;;;;6.40;1.52;;;25.50;21.90;;;;;;4361352;32;20564;-38
2021/05/04 12:49:37;;;;;;;5.18;0.47;;;25.60;21.90;;;;;;4357930;32;20066;-40
2021/05/04 12:52:17;;;;;;;3.80;0.60;;;25.80;21.90;;;;;;4358432;32;20073;-36
2021/05/04 12:54:45;;;;;;;4.03;0.55;;;25.80;21.80;;;;;;4370111;32;20137;-39
2021/05/04 12:57:21;;;;;;;8.57;1.40;;;25.80;21.80;;;;;;4358013;32;20065;-41
2021/05/04 12:59:47;;;;;;;8.80;0.68;;;25.90;21.90;;;;;;4370255;32;20145;-39
2021/05/04 13:02:27;;;;;;;2.40;0.70;;;25.90;21.90;;;;;;4357443;32;20165;-40
2021/05/04 13:04:58;;;;;;;8.43;0.68;;;25.90;22.00;;;;;;4370030;32;20078;-42
2021/05/04 13:07:37;;;;;;;4.30;0.70;;;25.90;22.20;;;;;;4357188;32;20077;-41
2021/05/04 13:12:55;;;;;;;6.68;0.68;;;25.70;22.40;;;;;;4370105;32;20068;-40
2021/05/04 13:18:35;;;;;;;11.65;1.17;;;25.50;22.90;;;;;;4370005;32;20072;-39
2021/05/04 13:32:22;;;;;;;7.63;0.77;;;24.80;24.70;;;;;;4390466;32;20108;-40
2021/05/04 13:37:27;;;;;;;5.95;0.50;;;24.60;25.40;;;;;;4390404;32;20489;-41